Time;durP1;ratioP1;P1;durP2;ratioP2;P2;SDS_P1;SDS_P2;PMS_P1;PMS_P2;Temp;Humidity;BMP_temperature;BMP_pressure;BME280_temperature;BME280_humidity;BME280_pressure;Samples;Min_cycle;Max_cycle;Signal;HPM_P1;HPM_P2
2022/06/21 00:00:54;;;;;;;;;;;;;;;;;;5017478;28;20400;-27
2022/06/21 00:03:19;;;;;;;;;;;;;;;;;;5017401;28;19956;-27
2022/06/21 00:05:45;;;;;;;;;;;;;;;;;;5017962;28;19921;-27
2022/06/21 00:08:11;;;;;;;;;;;;;;;;;;5017109;28;20375;-27
2022/06/21 00:10:37;;;;;;;;;;;;;;;;;;5017260;28;20379;-27
2022/06/21 00:13:03;;;;;;;;;;;;;;;;;;5017420;28;19952;-27
2022/06/21 00:15:29;;;;;;;;;;;;;;;;;;5017290;28;19928;-27
2022/06/21 00:17:55;;;;;;;;;;;;;;;;;;5016893;28;20348;-27
2022/06/21 00:20:21;;;;;;;;;;;;;;;;;;5017247;28;19909;-27
2022/06/21 00:22:48;;;;;;;;;;;;;;;;;;5016983;28;20000;-27
2022/06/21 00:25:15;;;;;;;;;;;;;;;;;;5017390;28;19920;-27
2022/06/21 00:27:41;;;;;;;;;;;;;;;;;;5017215;28;20357;-27
2022/06/21 00:30:07;;;;;;;;;;;;;;;;;;5016970;28;19910;-27
2022/06/21 00:32:32;;;;;;;;;;;;;;;;;;5017088;28;19925;-27
2022/06/21 00:34:58;;;;;;;;;;;;;;;;;;5016895;28;19909;-27
2022/06/21 00:37:24;;;;;;;;;;;;;;;;;;5017128;28;19996;-27
2022/06/21 00:39:51;;;;;;;;;;;;;;;;;;5016766;28;19924;-27
2022/06/21 00:42:17;;;;;;;;;;;;;;;;;;5016642;28;19914;-27
2022/06/21 00:44:43;;;;;;;;;;;;;;;;;;5017793;28;19988;-27
2022/06/21 00:47:09;;;;;;;;;;;;;;;;;;5016515;28;19913;-27
2022/06/21 00:49:35;;;;;;;;;;;;;;;;;;5017183;28;19910;-26
2022/06/21 00:52:01;;;;;;;;;;;;;;;;;;5016717;28;20008;-27
2022/06/21 00:54:27;;;;;;;;;;;;;;;;;;5016805;28;19917;-27
2022/06/21 00:56:53;;;;;;;;;;;;;;;;;;5016765;28;19925;-27
2022/06/21 00:59:19;;;;;;;;;;;;;;;;;;5016967;28;19952;-27
2022/06/21 01:01:45;;;;;;;;;;;;;;;;;;5015405;28;19932;-27
2022/06/21 01:04:11;;;;;;;;;;;;;;;;;;5016590;28;19913;-27
2022/06/21 01:06:37;;;;;;;;;;;;;;;;;;5016103;28;19921;-27
2022/06/21 01:09:03;;;;;;;;;;;;;;;;;;5016708;28;19918;-27
2022/06/21 01:11:29;;;;;;;;;;;;;;;;;;5016264;28;19992;-27
2022/06/21 01:13:55;;;;;;;;;;;;;;;;;;5016649;28;20003;-27
2022/06/21 01:16:21;;;;;;;;;;;;;;;;;;5016653;28;20002;-27
2022/06/21 01:18:47;;;;;;;;;;;;;;;;;;5016327;28;19916;-27
2022/06/21 01:21:13;;;;;;;;;;;;;;;;;;5016074;28;20249;-27
2022/06/21 01:23:39;;;;;;;;;;;;;;;;;;5016190;28;19914;-27
2022/06/21 01:26:05;;;;;;;;;;;;;;;;;;5016218;28;20308;-27
2022/06/21 01:28:31;;;;;;;;;;;;;;;;;;5015815;28;19913;-27
2022/06/21 01:30:57;;;;;;;;;;;;;;;;;;5015247;28;19913;-27
2022/06/21 01:33:23;;;;;;;;;;;;;;;;;;5015995;28;19913;-27
2022/06/21 01:35:49;;;;;;;;;;;;;;;;;;5016369;28;19933;-27
2022/06/21 01:38:15;;;;;;;;;;;;;;;;;;5015740;28;19925;-27
2022/06/21 01:40:41;;;;;;;;;;;;;;;;;;5015722;28;19909;-27
2022/06/21 01:43:07;;;;;;;;;;;;;;;;;;5015860;28;19964;-27
2022/06/21 01:45:33;;;;;;;;;;;;;;;;;;5015931;28;20260;-27
2022/06/21 01:47:59;;;;;;;;;;;;;;;;;;5016121;28;19917;-27
2022/06/21 01:50:25;;;;;;;;;;;;;;;;;;5015541;28;19913;-27
2022/06/21 01:52:51;;;;;;;;;;;;;;;;;;5015494;28;20016;-27
2022/06/21 01:55:17;;;;;;;;;;;;;;;;;;5015819;28;19913;-27
2022/06/21 01:57:43;;;;;;;;;;;;;;;;;;5015702;28;19937;-27
2022/06/21 02:00:09;;;;;;;;;;;;;;;;;;5015516;28;19909;-27
2022/06/21 02:02:35;;;;;;;;;;;;;;;;;;5015600;28;19924;-27
2022/06/21 02:05:01;;;;;;;;;;;;;;;;;;5015453;28;19909;-27
2022/06/21 02:07:27;;;;;;;;;;;;;;;;;;5015146;28;20268;-27
2022/06/21 02:09:53;;;;;;;;;;;;;;;;;;5015683;28;19913;-27
2022/06/21 02:12:19;;;;;;;;;;;;;;;;;;5015249;28;20278;-27
2022/06/21 02:14:45;;;;;;;;;;;;;;;;;;5015625;28;19956;-27
2022/06/21 02:17:11;;;;;;;;;;;;;;;;;;5015825;28;19924;-27
2022/06/21 02:19:38;;;;;;;;;;;;;;;;;;5015566;28;20249;-27
2022/06/21 02:22:04;;;;;;;;;;;;;;;;;;5015437;28;20367;-26
2022/06/21 02:24:30;;;;;;;;;;;;;;;;;;5015518;28;19909;-27
2022/06/21 02:26:56;;;;;;;;;;;;;;;;;;5015489;28;20275;-27
2022/06/21 02:29:22;;;;;;;;;;;;;;;;;;5015124;28;20292;-27
2022/06/21 02:31:49;;;;;;;;;;;;;;;;;;5015671;28;19928;-27
2022/06/21 02:34:15;;;;;;;;;;;;;;;;;;5015204;28;20292;-27
2022/06/21 02:36:41;;;;;;;;;;;;;;;;;;5015147;28;19940;-27
2022/06/21 02:39:07;;;;;;;;;;;;;;;;;;5015639;28;19913;-27
2022/06/21 02:41:33;;;;;;;;;;;;;;;;;;5015804;28;19985;-27
2022/06/21 02:43:59;;;;;;;;;;;;;;;;;;5017977;28;20028;-27
2022/06/21 02:46:26;;;;;;;;;;;;;;;;;;5018983;28;19910;-27
2022/06/21 02:48:51;;;;;;;;;;;;;;;;;;5018810;28;19917;-27
2022/06/21 02:51:18;;;;;;;;;;;;;;;;;;5018845;28;19915;-27
2022/06/21 02:53:43;;;;;;;;;;;;;;;;;;5018649;28;19925;-27
2022/06/21 02:56:09;;;;;;;;;;;;;;;;;;5019275;28;19914;-27
2022/06/21 02:58:35;;;;;;;;;;;;;;;;;;5018657;28;19916;-27
2022/06/21 03:01:01;;;;;;;;;;;;;;;;;;5018658;28;20411;-26
2022/06/21 03:03:27;;;;;;;;;;;;;;;;;;5018797;28;19910;-27
2022/06/21 03:05:54;;;;;;;;;;;;;;;;;;5018616;28;20287;-27
2022/06/21 03:08:20;;;;;;;;;;;;;;;;;;5018712;28;19914;-27
2022/06/21 03:10:46;;;;;;;;;;;;;;;;;;5018552;28;19945;-27
2022/06/21 03:13:12;;;;;;;;;;;;;;;;;;5018459;28;19984;-27
2022/06/21 03:15:38;;;;;;;;;;;;;;;;;;5018382;28;19963;-27
2022/06/21 03:18:04;;;;;;;;;;;;;;;;;;5018249;28;20349;-27
2022/06/21 03:20:30;;;;;;;;;;;;;;;;;;5018531;28;19910;-26
2022/06/21 03:22:56;;;;;;;;;;;;;;;;;;5018143;28;19996;-27
2022/06/21 03:25:22;;;;;;;;;;;;;;;;;;5018188;28;19917;-27
2022/06/21 03:27:48;;;;;;;;;;;;;;;;;;5018922;28;19924;-27
2022/06/21 03:30:16;;;;;;;;;;;;;;;;;;5018174;28;19914;-27
2022/06/21 03:32:42;;;;;;;;;;;;;;;;;;5018007;28;19917;-27
2022/06/21 03:35:08;;;;;;;;;;;;;;;;;;5018828;28;19923;-27
2022/06/21 03:37:34;;;;;;;;;;;;;;;;;;5018244;28;20252;-27
2022/06/21 03:42:45;;;;;;;;;;;;;;;;;;5017970;28;19963;-27
2022/06/21 03:45:11;;;;;;;;;;;;;;;;;;5017820;28;20380;-27
2022/06/21 03:47:37;;;;;;;;;;;;;;;;;;5017765;28;19968;-27
2022/06/21 03:50:03;;;;;;;;;;;;;;;;;;5017733;28;19975;-27
2022/06/21 03:52:41;;;;;;;;;;;;;;;;;;5017622;28;19914;-27
2022/06/21 03:55:07;;;;;;;;;;;;;;;;;;5016950;28;19987;-27
2022/06/21 03:57:33;;;;;;;;;;;;;;;;;;5018072;28;19913;-27
2022/06/21 03:59:59;;;;;;;;;;;;;;;;;;5018223;28;19921;-27
2022/06/21 04:02:25;;;;;;;;;;;;;;;;;;5017562;28;19913;-27
2022/06/21 04:04:51;;;;;;;;;;;;;;;;;;5017686;28;19909;-27
2022/06/21 04:07:17;;;;;;;;;;;;;;;;;;5017051;28;19925;-27
2022/06/21 04:09:44;;;;;;;;;;;;;;;;;;5016253;28;20233;-27
2022/06/21 04:12:10;;;;;;;;;;;;;;;;;;5017117;28;19932;-27
2022/06/21 04:14:36;;;;;;;;;;;;;;;;;;5017553;28;19913;-27
2022/06/21 04:17:02;;;;;;;;;;;;;;;;;;5016983;28;20296;-25
2022/06/21 04:19:28;;;;;;;;;;;;;;;;;;5016982;28;19932;-26
2022/06/21 04:21:54;;;;;;;;;;;;;;;;;;5016898;28;19913;-26
2022/06/21 04:24:20;;;;;;;;;;;;;;;;;;5016950;28;20237;-26
2022/06/21 04:26:46;;;;;;;;;;;;;;;;;;5017045;28;19914;-26
2022/06/21 04:29:12;;;;;;;;;;;;;;;;;;5017351;28;19928;-26
2022/06/21 04:31:39;;;;;;;;;;;;;;;;;;5016944;28;20340;-26
2022/06/21 04:34:05;;;;;;;;;;;;;;;;;;5017007;28;19972;-26
2022/06/21 04:36:32;;;;;;;;;;;;;;;;;;5016767;28;20308;-26
2022/06/21 04:38:58;;;;;;;;;;;;;;;;;;5016997;28;19936;-26
2022/06/21 04:41:24;;;;;;;;;;;;;;;;;;5017268;28;20329;-26
2022/06/21 04:43:50;;;;;;;;;;;;;;;;;;5016746;28;19913;-26
2022/06/21 04:46:16;;;;;;;;;;;;;;;;;;5016326;28;19921;-26
2022/06/21 04:48:42;;;;;;;;;;;;;;;;;;5015276;28;20272;-26
2022/06/21 04:51:08;;;;;;;;;;;;;;;;;;5016304;28;20348;-26
2022/06/21 04:53:34;;;;;;;;;;;;;;;;;;5016108;28;19932;-27
2022/06/21 04:56:00;;;;;;;;;;;;;;;;;;5016144;28;19909;-26
2022/06/21 04:58:26;;;;;;;;;;;;;;;;;;5016114;28;19954;-26
2022/06/21 05:00:52;;;;;;;;;;;;;;;;;;5016121;28;19913;-27
2022/06/21 05:03:18;;;;;;;;;;;;;;;;;;5016515;28;19913;-27
2022/06/21 05:05:44;;;;;;;;;;;;;;;;;;5016295;28;20256;-26
2022/06/21 05:08:10;;;;;;;;;;;;;;;;;;5015821;28;19922;-27
2022/06/21 05:10:36;;;;;;;;;;;;;;;;;;5015975;28;20312;-26
2022/06/21 05:13:02;;;;;;;;;;;;;;;;;;5015905;28;19957;-27
2022/06/21 05:15:29;;;;;;;;;;;;;;;;;;5015967;28;19953;-26
2022/06/21 05:17:55;;;;;;;;;;;;;;;;;;5015928;28;19910;-26
2022/06/21 05:20:21;;;;;;;;;;;;;;;;;;5015841;28;20467;-26
2022/06/21 05:22:47;;;;;;;;;;;;;;;;;;5015644;28;19925;-26
2022/06/21 05:25:13;;;;;;;;;;;;;;;;;;5016116;28;20028;-26
2022/06/21 05:27:38;;;;;;;;;;;;;;;;;;5015764;28;19914;-26
2022/06/21 05:30:05;;;;;;;;;;;;;;;;;;5015743;28;19968;-26
2022/06/21 05:32:31;;;;;;;;;;;;;;;;;;5015356;28;19948;-27
2022/06/21 05:34:56;;;;;;;;;;;;;;;;;;5015815;28;19972;-27
2022/06/21 05:37:22;;;;;;;;;;;;;;;;;;5015960;28;19914;-27
2022/06/21 05:39:48;;;;;;;;;;;;;;;;;;5015591;28;19914;-27
2022/06/21 05:42:14;;;;;;;;;;;;;;;;;;5015500;28;19921;-27
2022/06/21 05:44:40;;;;;;;;;;;;;;;;;;5016071;28;19909;-27
2022/06/21 05:47:07;;;;;;;;;;;;;;;;;;5015407;28;20001;-27
2022/06/21 05:49:33;;;;;;;;;;;;;;;;;;5015809;28;19991;-27
2022/06/21 05:52:00;;;;;;;;;;;;;;;;;;5015217;28;19909;-26
2022/06/21 05:54:26;;;;;;;;;;;;;;;;;;5015280;28;19913;-25
2022/06/21 05:56:52;;;;;;;;;;;;;;;;;;5015217;28;19909;-26
2022/06/21 05:59:18;;;;;;;;;;;;;;;;;;5015374;28;19914;-26
2022/06/21 06:01:44;;;;;;;;;;;;;;;;;;5014088;28;19969;-26
2022/06/21 06:04:10;;;;;;;;;;;;;;;;;;5015114;28;19909;-26
2022/06/21 06:06:36;;;;;;;;;;;;;;;;;;5014916;28;19922;-27
2022/06/21 06:09:03;;;;;;;;;;;;;;;;;;5015333;28;19932;-27
2022/06/21 06:11:57;;;;;;;;;;;;;;;;;;5015231;28;19910;-27
2022/06/21 06:14:15;;;;;;;;;;;;;;;;;;5015122;28;19913;-27
2022/06/21 06:16:41;;;;;;;;;;;;;;;;;;5017230;28;19925;-27
2022/06/21 06:19:07;;;;;;;;;;;;;;;;;;5021730;28;19909;-27
2022/06/21 06:21:33;;;;;;;;;;;;;;;;;;5022236;28;19939;-27
2022/06/21 06:24:00;;;;;;;;;;;;;;;;;;5021585;28;19914;-27
2022/06/21 06:26:26;;;;;;;;;;;;;;;;;;5021851;28;20260;-27
2022/06/21 06:28:52;;;;;;;;;;;;;;;;;;5022106;28;19914;-27
2022/06/21 06:31:18;;;;;;;;;;;;;;;;;;5022318;28;19913;-27
2022/06/21 06:33:44;;;;;;;;;;;;;;;;;;5021458;28;19921;-27
2022/06/21 06:36:10;;;;;;;;;;;;;;;;;;5022079;28;20000;-27
2022/06/21 06:38:36;;;;;;;;;;;;;;;;;;5021465;28;19913;-25
2022/06/21 06:41:02;;;;;;;;;;;;;;;;;;5021510;28;19910;-26
2022/06/21 06:43:28;;;;;;;;;;;;;;;;;;5021292;28;19918;-26
2022/06/21 06:45:54;;;;;;;;;;;;;;;;;;5021334;28;19932;-26
2022/06/21 06:48:20;;;;;;;;;;;;;;;;;;5021076;28;20329;-27
2022/06/21 06:50:46;;;;;;;;;;;;;;;;;;5021319;28;20371;-26
2022/06/21 06:53:12;;;;;;;;;;;;;;;;;;5021404;28;19909;-26
2022/06/21 06:55:38;;;;;;;;;;;;;;;;;;5021298;28;20360;-26
2022/06/21 06:58:04;;;;;;;;;;;;;;;;;;5021141;28;19967;-26
2022/06/21 07:00:30;;;;;;;;;;;;;;;;;;5020985;28;20356;-26
2022/06/21 07:02:56;;;;;;;;;;;;;;;;;;5021154;28;19914;-26
2022/06/21 07:05:22;;;;;;;;;;;;;;;;;;5021122;28;20000;-26
2022/06/21 07:07:48;;;;;;;;;;;;;;;;;;5020963;28;19921;-27
2022/06/21 07:10:14;;;;;;;;;;;;;;;;;;5020342;28;19976;-27
2022/06/21 07:12:40;;;;;;;;;;;;;;;;;;5021119;28;20380;-26
2022/06/21 07:15:06;;;;;;;;;;;;;;;;;;5021164;28;19910;-27
2022/06/21 07:17:32;;;;;;;;;;;;;;;;;;5021295;28;19922;-27
2022/06/21 07:19:58;;;;;;;;;;;;;;;;;;5021254;28;19994;-27
2022/06/21 07:22:24;;;;;;;;;;;;;;;;;;5021083;28;19988;-27
2022/06/21 07:24:50;;;;;;;;;;;;;;;;;;5021694;28;19917;-27
2022/06/21 07:27:16;;;;;;;;;;;;;;;;;;5021077;28;19920;-27
2022/06/21 07:29:42;;;;;;;;;;;;;;;;;;5017897;28;19922;-27
2022/06/21 07:32:08;;;;;;;;;;;;;;;;;;5017923;28;20340;-27
2022/06/21 07:34:35;;;;;;;;;;;;;;;;;;5018501;28;19930;-26
2022/06/21 07:37:01;;;;;;;;;;;;;;;;;;5017924;28;20000;-27
2022/06/21 07:39:27;;;;;;;;;;;;;;;;;;5018136;28;20341;-27
2022/06/21 07:41:53;;;;;;;;;;;;;;;;;;5017713;28;19917;-27
2022/06/21 07:44:19;;;;;;;;;;;;;;;;;;5017929;28;19960;-27
2022/06/21 07:46:45;;;;;;;;;;;;;;;;;;5017901;28;19910;-27
2022/06/21 07:49:11;;;;;;;;;;;;;;;;;;5017740;28;20348;-27
2022/06/21 07:51:37;;;;;;;;;;;;;;;;;;5017394;28;20410;-27
2022/06/21 07:54:03;;;;;;;;;;;;;;;;;;5016361;28;19924;-27
2022/06/21 07:56:29;;;;;;;;;;;;;;;;;;5017362;28;19949;-27
2022/06/21 07:58:56;;;;;;;;;;;;;;;;;;5017352;28;19914;-27
2022/06/21 08:06:51;;;;;;;;;;;;;;;;;;5017130;28;19945;-27
2022/06/21 08:09:17;;;;;;;;;;;;;;;;;;5017333;28;20289;-27
2022/06/21 08:11:43;;;;;;;;;;;;;;;;;;5017150;28;19914;-27
2022/06/21 08:14:09;;;;;;;;;;;;;;;;;;5017066;28;20383;-27
2022/06/21 08:16:35;;;;;;;;;;;;;;;;;;5016173;28;19929;-26
2022/06/21 08:19:01;;;;;;;;;;;;;;;;;;5017082;28;19913;-27
2022/06/21 08:21:29;;;;;;;;;;;;;;;;;;5016033;28;20004;-27
2022/06/21 08:23:56;;;;;;;;;;;;;;;;;;5016859;28;20352;-27
2022/06/21 08:26:22;;;;;;;;;;;;;;;;;;5017194;28;20295;-27
2022/06/21 08:28:48;;;;;;;;;;;;;;;;;;5017322;28;20012;-27
2022/06/21 08:31:14;;;;;;;;;;;;;;;;;;5017083;28;20234;-27
2022/06/21 08:33:42;;;;;;;;;;;;;;;;;;5017323;28;19909;-27
2022/06/21 08:36:08;;;;;;;;;;;;;;;;;;5017032;28;20255;-27
2022/06/21 08:38:34;;;;;;;;;;;;;;;;;;5016595;28;19918;-27
2022/06/21 08:41:00;;;;;;;;;;;;;;;;;;5016132;28;19975;-27
2022/06/21 08:43:26;;;;;;;;;;;;;;;;;;5016377;28;19921;-27
2022/06/21 08:45:53;;;;;;;;;;;;;;;;;;5016588;28;19914;-27
2022/06/21 08:48:19;;;;;;;;;;;;;;;;;;5016744;28;20012;-27
2022/06/21 08:50:45;;;;;;;;;;;;;;;;;;5017128;28;19936;-27
2022/06/21 08:53:11;;;;;;;;;;;;;;;;;;5016253;28;19920;-27
2022/06/21 08:55:37;;;;;;;;;;;;;;;;;;5016460;28;20392;-25
2022/06/21 08:58:04;;;;;;;;;;;;;;;;;;5016581;28;19924;-26
2022/06/21 09:00:33;;;;;;;;;;;;;;;;;;5016636;28;19914;-26
2022/06/21 09:02:59;;;;;;;;;;;;;;;;;;5016314;28;19996;-26
2022/06/21 09:05:25;;;;;;;;;;;;;;;;;;5016015;28;19945;-26
2022/06/21 09:07:51;;;;;;;;;;;;;;;;;;5015765;28;19969;-26
2022/06/21 09:10:17;;;;;;;;;;;;;;;;;;5016045;28;19913;-26
2022/06/21 09:12:43;;;;;;;;;;;;;;;;;;5016705;28;19929;-26
2022/06/21 09:15:09;;;;;;;;;;;;;;;;;;5016259;28;20334;-26
2022/06/21 09:17:35;;;;;;;;;;;;;;;;;;5016680;28;19913;-26
2022/06/21 09:20:01;;;;;;;;;;;;;;;;;;5016878;28;20000;-26
2022/06/21 09:22:27;;;;;;;;;;;;;;;;;;5015880;28;19913;-26
2022/06/21 09:24:53;;;;;;;;;;;;;;;;;;5015669;28;19937;-26
2022/06/21 09:27:19;;;;;;;;;;;;;;;;;;5015611;28;19923;-26
2022/06/21 09:29:46;;;;;;;;;;;;;;;;;;5015976;28;19921;-26
2022/06/21 09:32:13;;;;;;;;;;;;;;;;;;5015645;28;19913;-26
2022/06/21 09:34:39;;;;;;;;;;;;;;;;;;5015669;28;19913;-26
2022/06/21 09:37:05;;;;;;;;;;;;;;;;;;5015559;28;19924;-26
2022/06/21 09:39:31;;;;;;;;;;;;;;;;;;5014600;28;19910;-26
2022/06/21 09:41:57;;;;;;;;;;;;;;;;;;5015409;28;19968;-26
2022/06/21 09:44:23;;;;;;;;;;;;;;;;;;5015894;28;19976;-26
2022/06/21 09:46:49;;;;;;;;;;;;;;;;;;5015328;28;19967;-26
2022/06/21 09:49:15;;;;;;;;;;;;;;;;;;5015568;28;19917;-26
2022/06/21 09:51:41;;;;;;;;;;;;;;;;;;5014509;28;20255;-27
2022/06/21 09:54:07;;;;;;;;;;;;;;;;;;5015766;28;19924;-26
2022/06/21 09:56:33;;;;;;;;;;;;;;;;;;5015210;28;19968;-26
2022/06/21 09:58:59;;;;;;;;;;;;;;;;;;5015241;28;19968;-26
2022/06/21 10:01:26;;;;;;;;;;;;;;;;;;5015437;28;19913;-26
2022/06/21 10:03:52;;;;;;;;;;;;;;;;;;5015135;28;20382;-26
2022/06/21 10:06:18;;;;;;;;;;;;;;;;;;5014905;28;19925;-26
2022/06/21 10:08:44;;;;;;;;;;;;;;;;;;5015072;28;19921;-26
2022/06/21 10:11:10;;;;;;;;;;;;;;;;;;5015047;28;20263;-26
2022/06/21 10:13:36;;;;;;;;;;;;;;;;;;5014935;28;19968;-26
2022/06/21 10:16:02;;;;;;;;;;;;;;;;;;5015085;28;19925;-26
2022/06/21 10:18:28;;;;;;;;;;;;;;;;;;5014979;28;19972;-26
2022/06/21 10:20:54;;;;;;;;;;;;;;;;;;5015360;28;19914;-27
2022/06/21 10:23:22;;;;;;;;;;;;;;;;;;5014931;28;19924;-26
2022/06/21 10:25:48;;;;;;;;;;;;;;;;;;5015818;28;19909;-26
2022/06/21 10:28:14;;;;;;;;;;;;;;;;;;5014871;28;19927;-26
2022/06/21 10:30:43;;;;;;;;;;;;;;;;;;5014973;28;19977;-26
2022/06/21 10:33:09;;;;;;;;;;;;;;;;;;5015188;28;19924;-26
2022/06/21 10:35:35;;;;;;;;;;;;;;;;;;5014921;28;19914;-26
2022/06/21 10:38:02;;;;;;;;;;;;;;;;;;5015157;28;19913;-26
2022/06/21 10:40:28;;;;;;;;;;;;;;;;;;5014998;28;19913;-26
2022/06/21 10:42:54;;;;;;;;;;;;;;;;;;5014954;28;19940;-27
2022/06/21 10:45:20;;;;;;;;;;;;;;;;;;5015416;28;20226;-27
2022/06/21 10:47:46;;;;;;;;;;;;;;;;;;5014724;28;19913;-27
2022/06/21 10:50:12;;;;;;;;;;;;;;;;;;5014695;28;19924;-27
2022/06/21 10:52:38;;;;;;;;;;;;;;;;;;5013556;28;19918;-26
2022/06/21 10:55:04;;;;;;;;;;;;;;;;;;5014525;28;20060;-26
2022/06/21 10:57:30;;;;;;;;;;;;;;;;;;5015227;28;19916;-26
2022/06/21 11:02:41;;;;;;;;;;;;;;;;;;5015346;28;19921;-27
2022/06/21 11:05:07;;;;;;;;;;;;;;;;;;5018249;28;19914;-27
2022/06/21 11:07:33;;;;;;;;;;;;;;;;;;5018037;28;20012;-27
2022/06/21 11:09:59;;;;;;;;;;;;;;;;;;5018871;28;20004;-27
2022/06/21 11:15:10;;;;;;;;;;;;;;;;;;5018322;28;19919;-27
2022/06/21 11:17:37;;;;;;;;;;;;;;;;;;5018727;28;19964;-27
2022/06/21 11:20:03;;;;;;;;;;;;;;;;;;5018115;28;19913;-27
2022/06/21 11:22:29;;;;;;;;;;;;;;;;;;5018010;28;19922;-27
2022/06/21 11:24:55;;;;;;;;;;;;;;;;;;5018041;28;19960;-27
2022/06/21 11:27:21;;;;;;;;;;;;;;;;;;5018252;28;20279;-27
2022/06/21 11:29:47;;;;;;;;;;;;;;;;;;5018445;28;19996;-27
2022/06/21 11:32:13;;;;;;;;;;;;;;;;;;5017810;28;19922;-27
2022/06/21 11:34:39;;;;;;;;;;;;;;;;;;5017867;28;19914;-27
2022/06/21 11:37:06;;;;;;;;;;;;;;;;;;5018285;28;19921;-27
2022/06/21 11:39:32;;;;;;;;;;;;;;;;;;5017984;28;20296;-27
2022/06/21 11:42:04;;;;;;;;;;;;;;;;;;5018141;28;19913;-27
2022/06/21 11:44:30;;;;;;;;;;;;;;;;;;5018821;28;20329;-27
2022/06/21 11:46:56;;;;;;;;;;;;;;;;;;5017673;28;19920;-27
2022/06/21 11:49:22;;;;;;;;;;;;;;;;;;5018078;28;19917;-27
2022/06/21 11:51:48;;;;;;;;;;;;;;;;;;5017507;28;19914;-27
2022/06/21 11:54:15;;;;;;;;;;;;;;;;;;5018043;28;19909;-27
2022/06/21 11:56:41;;;;;;;;;;;;;;;;;;5017471;28;19920;-27
2022/06/21 11:59:07;;;;;;;;;;;;;;;;;;5017468;28;19913;-27
2022/06/21 12:01:33;;;;;;;;;;;;;;;;;;5017482;28;19924;-27
2022/06/21 12:03:59;;;;;;;;;;;;;;;;;;5017309;28;19914;-27
2022/06/21 12:06:29;;;;;;;;;;;;;;;;;;5017884;28;19921;-27
2022/06/21 12:08:55;;;;;;;;;;;;;;;;;;5017464;28;19972;-27
2022/06/21 12:11:21;;;;;;;;;;;;;;;;;;5017152;28;19964;-27
2022/06/21 12:13:48;;;;;;;;;;;;;;;;;;5016860;28;19924;-27
2022/06/21 12:16:16;;;;;;;;;;;;;;;;;;5016509;28;19924;-27
2022/06/21 12:18:42;;;;;;;;;;;;;;;;;;5017300;28;19910;-27
2022/06/21 12:21:09;;;;;;;;;;;;;;;;;;5016911;28;19913;-27
2022/06/21 12:23:35;;;;;;;;;;;;;;;;;;5017178;28;20234;-27
2022/06/21 12:26:01;;;;;;;;;;;;;;;;;;5016931;28;20011;-27
2022/06/21 12:28:27;;;;;;;;;;;;;;;;;;5017305;28;19918;-27
2022/06/21 12:30:53;;;;;;;;;;;;;;;;;;5017296;28;19921;-27
2022/06/21 12:33:19;;;;;;;;;;;;;;;;;;5016774;28;19914;-28
2022/06/21 12:35:46;;;;;;;;;;;;;;;;;;5017288;28;19921;-27
2022/06/21 12:38:12;;;;;;;;;;;;;;;;;;5016938;28;19913;-26
2022/06/21 12:40:38;;;;;;;;;;;;;;;;;;5017153;28;19914;-27
2022/06/21 12:43:04;;;;;;;;;;;;;;;;;;5016543;28;19916;-26
2022/06/21 12:45:30;;;;;;;;;;;;;;;;;;5016483;28;19974;-27
2022/06/21 12:47:56;;;;;;;;;;;;;;;;;;5016396;28;20356;-27
2022/06/21 12:50:22;;;;;;;;;;;;;;;;;;5016371;28;19981;-27
2022/06/21 12:52:48;;;;;;;;;;;;;;;;;;5016402;28;19916;-27
2022/06/21 12:55:14;;;;;;;;;;;;;;;;;;5016863;28;19932;-27
2022/06/21 12:57:40;;;;;;;;;;;;;;;;;;5016340;28;19913;-26
2022/06/21 13:00:06;;;;;;;;;;;;;;;;;;5016263;28;20005;-27
2022/06/21 13:02:32;;;;;;;;;;;;;;;;;;5016090;28;19913;-26
2022/06/21 13:04:58;;;;;;;;;;;;;;;;;;5016768;28;19909;-26
2022/06/21 13:07:24;;;;;;;;;;;;;;;;;;5015962;28;19951;-27
2022/06/21 13:09:50;;;;;;;;;;;;;;;;;;5016606;28;19914;-26
2022/06/21 13:12:16;;;;;;;;;;;;;;;;;;5016072;28;19913;-26
2022/06/21 13:14:42;;;;;;;;;;;;;;;;;;5016053;28;19935;-26
2022/06/21 13:17:08;;;;;;;;;;;;;;;;;;5016638;28;19988;-26
2022/06/21 13:19:34;;;;;;;;;;;;;;;;;;5016043;28;19914;-26
2022/06/21 13:22:00;;;;;;;;;;;;;;;;;;5015823;28;20411;-27
2022/06/21 13:24:26;;;;;;;;;;;;;;;;;;5015870;28;19999;-26
2022/06/21 13:26:53;;;;;;;;;;;;;;;;;;5015704;28;19985;-26
2022/06/21 13:29:20;;;;;;;;;;;;;;;;;;5015953;28;19914;-26
2022/06/21 13:31:46;;;;;;;;;;;;;;;;;;5016113;28;19913;-26
2022/06/21 13:34:12;;;;;;;;;;;;;;;;;;5015688;28;19924;-27
2022/06/21 13:36:39;;;;;;;;;;;;;;;;;;5015577;28;19931;-26
2022/06/21 13:39:07;;;;;;;;;;;;;;;;;;5015739;28;19910;-26
2022/06/21 13:44:18;;;;;;;;;;;;;;;;;;5015591;28;19944;-26
2022/06/21 13:46:44;;;;;;;;;;;;;;;;;;5015783;28;19909;-26
2022/06/21 13:49:10;;;;;;;;;;;;;;;;;;5015303;28;19918;-26
2022/06/21 13:51:36;;;;;;;;;;;;;;;;;;5015421;28;20299;-26
2022/06/21 13:54:02;;;;;;;;;;;;;;;;;;5015371;28;19921;-26
2022/06/21 13:56:29;;;;;;;;;;;;;;;;;;5015453;28;20344;-26
2022/06/21 13:58:55;;;;;;;;;;;;;;;;;;5015416;28;19914;-26
2022/06/21 14:01:21;;;;;;;;;;;;;;;;;;5015438;28;20361;-26
2022/06/21 14:03:48;;;;;;;;;;;;;;;;;;5015375;28;19936;-26
2022/06/21 14:06:14;;;;;;;;;;;;;;;;;;5015027;28;19917;-26
2022/06/21 14:08:40;;;;;;;;;;;;;;;;;;5015208;28;19971;-26
2022/06/21 14:11:06;;;;;;;;;;;;;;;;;;5014995;28;19925;-26
2022/06/21 14:13:32;;;;;;;;;;;;;;;;;;5014960;28;19909;-26
2022/06/21 14:15:58;;;;;;;;;;;;;;;;;;5015127;28;19989;-26
2022/06/21 14:18:24;;;;;;;;;;;;;;;;;;5015171;28;19914;-26
2022/06/21 14:20:50;;;;;;;;;;;;;;;;;;5015208;28;20008;-26
2022/06/21 14:23:16;;;;;;;;;;;;;;;;;;5015006;28;19949;-26
2022/06/21 14:25:42;;;;;;;;;;;;;;;;;;5014787;28;19918;-26
2022/06/21 14:28:09;;;;;;;;;;;;;;;;;;5014683;28;20415;-26
2022/06/21 14:30:35;;;;;;;;;;;;;;;;;;5014586;28;19924;-26
2022/06/21 14:33:01;;;;;;;;;;;;;;;;;;5014477;28;19909;-26
2022/06/21 14:35:27;;;;;;;;;;;;;;;;;;5014596;28;19925;-26
2022/06/21 14:37:54;;;;;;;;;;;;;;;;;;5015508;28;19914;-26
2022/06/21 14:40:20;;;;;;;;;;;;;;;;;;5018495;28;19910;-26
2022/06/21 14:42:46;;;;;;;;;;;;;;;;;;5018652;28;19914;-26
2022/06/21 14:45:12;;;;;;;;;;;;;;;;;;5018941;28;20116;-26
2022/06/21 14:47:38;;;;;;;;;;;;;;;;;;5018467;28;19939;-27
2022/06/21 14:50:04;;;;;;;;;;;;;;;;;;5018252;28;19925;-26
2022/06/21 14:52:30;;;;;;;;;;;;;;;;;;5018291;28;20000;-26
2022/06/21 14:54:56;;;;;;;;;;;;;;;;;;5018335;28;19913;-26
2022/06/21 14:57:22;;;;;;;;;;;;;;;;;;5018658;28;19976;-26
2022/06/21 14:59:50;;;;;;;;;;;;;;;;;;5018170;28;20341;-26
2022/06/21 15:02:16;;;;;;;;;;;;;;;;;;5018686;28;19914;-26
2022/06/21 15:04:42;;;;;;;;;;;;;;;;;;5018687;28;19913;-26
2022/06/21 15:07:08;;;;;;;;;;;;;;;;;;5017941;28;19972;-26
2022/06/21 15:09:34;;;;;;;;;;;;;;;;;;5018286;28;19979;-26
2022/06/21 15:12:03;;;;;;;;;;;;;;;;;;5018207;28;20402;-26
2022/06/21 15:14:29;;;;;;;;;;;;;;;;;;5018204;28;19917;-26
2022/06/21 15:16:55;;;;;;;;;;;;;;;;;;5017992;28;20379;-26
2022/06/21 15:22:07;;;;;;;;;;;;;;;;;;5018182;28;20007;-26
2022/06/21 15:24:33;;;;;;;;;;;;;;;;;;5017862;28;19929;-26
2022/06/21 15:26:59;;;;;;;;;;;;;;;;;;5017810;28;19910;-27
2022/06/21 15:29:26;;;;;;;;;;;;;;;;;;5017759;28;19956;-27
2022/06/21 15:31:52;;;;;;;;;;;;;;;;;;5017958;28;19918;-26
2022/06/21 15:34:19;;;;;;;;;;;;;;;;;;5017666;28;20257;-26
2022/06/21 15:36:45;;;;;;;;;;;;;;;;;;5017918;28;19916;-27
2022/06/21 15:39:11;;;;;;;;;;;;;;;;;;5017448;28;20045;-27
2022/06/21 15:41:37;;;;;;;;;;;;;;;;;;5017546;28;20016;-26
2022/06/21 15:44:03;;;;;;;;;;;;;;;;;;5017398;28;19913;-27
2022/06/21 15:46:29;;;;;;;;;;;;;;;;;;5017422;28;19914;-27
2022/06/21 15:51:40;;;;;;;;;;;;;;;;;;5017671;28;19935;-26
2022/06/21 15:54:06;;;;;;;;;;;;;;;;;;5017235;28;20340;-26
2022/06/21 15:56:32;;;;;;;;;;;;;;;;;;5017235;28;19956;-26
2022/06/21 15:58:58;;;;;;;;;;;;;;;;;;5017406;28;20234;-27
2022/06/21 16:01:24;;;;;;;;;;;;;;;;;;5017387;28;19909;-26
2022/06/21 16:03:50;;;;;;;;;;;;;;;;;;5017345;28;20234;-27
2022/06/21 16:06:17;;;;;;;;;;;;;;;;;;5016049;28;20348;-26
2022/06/21 16:08:43;;;;;;;;;;;;;;;;;;5017056;28;19975;-26
2022/06/21 16:11:09;;;;;;;;;;;;;;;;;;5017836;28;19914;-26
2022/06/21 16:13:35;;;;;;;;;;;;;;;;;;5016935;28;20369;-26
2022/06/21 16:16:01;;;;;;;;;;;;;;;;;;5017215;28;19909;-26
2022/06/21 16:18:27;;;;;;;;;;;;;;;;;;5017140;28;20251;-27
2022/06/21 16:20:53;;;;;;;;;;;;;;;;;;5017390;28;19917;-27
2022/06/21 16:23:19;;;;;;;;;;;;;;;;;;5016690;28;20273;-27
2022/06/21 16:25:45;;;;;;;;;;;;;;;;;;5016847;28;19914;-27
2022/06/21 16:28:11;;;;;;;;;;;;;;;;;;5016448;28;20051;-27
2022/06/21 16:30:37;;;;;;;;;;;;;;;;;;5016540;28;19971;-27
2022/06/21 16:35:59;;;;;;;;;;;;;;;;;;4999367;28;19914;-26
2022/06/21 16:38:25;;;;;;;;;;;;;;;;;;5016570;28;19913;-27
2022/06/21 16:43:37;;;;;;;;;;;;;;;;;;5016763;28;20059;-27
2022/06/21 16:46:03;;;;;;;;;;;;;;;;;;5016929;28;19913;-26
2022/06/21 16:48:29;;;;;;;;;;;;;;;;;;5016600;28;19917;-26
2022/06/21 16:50:55;;;;;;;;;;;;;;;;;;5016829;28;20293;-27
2022/06/21 16:53:21;;;;;;;;;;;;;;;;;;5016388;28;20000;-27
2022/06/21 16:55:47;;;;;;;;;;;;;;;;;;5016712;28;19909;-26
2022/06/21 16:58:13;;;;;;;;;;;;;;;;;;5016908;28;19976;-26
2022/06/21 17:00:40;;;;;;;;;;;;;;;;;;5016056;28;19910;-27
2022/06/21 17:03:06;;;;;;;;;;;;;;;;;;5016256;28;19964;-27
2022/06/21 17:05:32;;;;;;;;;;;;;;;;;;5016311;28;19910;-26